Time;durP1;ratioP1;P1;durP2;ratioP2;P2;SDS_P1;SDS_P2;PMS_P1;PMS_P2;Temp;Humidity;BMP_temperature;BMP_pressure;BME280_temperature;BME280_humidity;BME280_pressure;Samples;Min_cycle;Max_cycle;Signal;HPM_P1;HPM_P2
2021/09/12 00:00:13;;;;;;;66.07;24.10;;;;;;;;;;4993576;28;20028;-61
2021/09/12 00:02:40;;;;;;;70.40;25.70;;;;;;;;;;5008545;28;20037;-60
2021/09/12 00:05:07;;;;;;;78.32;24.98;;;;;;;;;;5009980;28;20064;-61
2021/09/12 00:07:33;;;;;;;75.80;26.92;;;;;;;;;;5004328;28;20082;-62
2021/09/12 00:10:08;;;;;;;74.93;25.40;;;;;;;;;;5017155;28;20056;-61
2021/09/12 00:12:34;;;;;;;78.97;23.73;;;;;;;;;;5010564;28;20025;-61
2021/09/12 00:15:02;;;;;;;70.25;27.63;;;;;;;;;;5011385;28;20037;-60
2021/09/12 00:17:27;;;;;;;88.72;26.02;;;;;;;;;;5011900;28;20059;-60
2021/09/12 00:19:55;;;;;;;83.07;27.30;;;;;;;;;;4989010;28;20167;-61
2021/09/12 00:22:23;;;;;;;78.75;26.58;;;;;;;;;;4994843;28;20037;-60
2021/09/12 00:24:51;;;;;;;72.88;23.83;;;;;;;;;;4993973;28;20037;-61
2021/09/12 00:27:19;;;;;;;77.55;24.85;;;;;;;;;;4969850;28;20152;-62
2021/09/12 00:29:44;;;;;;;76.43;23.10;;;;;;;;;;5011577;28;20086;-59
2021/09/12 00:32:15;;;;;;;87.88;24.83;;;;;;;;;;5011790;28;22198;-60
2021/09/12 00:34:43;;;;;;;78.75;25.80;;;;;;;;;;4991831;28;20037;-61
2021/09/12 00:37:11;;;;;;;75.75;25.05;;;;;;;;;;5009100;28;20044;-60
2021/09/12 00:39:41;;;;;;;80.45;25.60;;;;;;;;;;5002811;28;20076;-61
2021/09/12 00:42:09;;;;;;;95.45;26.60;;;;;;;;;;5007838;28;20064;-61
2021/09/12 00:44:35;;;;;;;81.97;27.50;;;;;;;;;;5006763;28;20140;-60
2021/09/12 00:47:06;;;;;;;80.97;26.20;;;;;;;;;;5010642;28;20042;-62
2021/09/12 00:49:34;;;;;;;86.22;27.50;;;;;;;;;;4994548;28;20071;-61
2021/09/12 00:52:03;;;;;;;79.50;24.98;;;;;;;;;;5010520;28;20050;-61
2021/09/12 00:54:31;;;;;;;77.75;24.42;;;;;;;;;;5013184;28;20651;-61
2021/09/12 00:56:56;;;;;;;82.47;25.48;;;;;;;;;;5008149;28;20025;-61
2021/09/12 00:59:22;;;;;;;71.45;23.23;;;;;;;;;;5010825;28;20036;-61
2021/09/12 01:01:48;;;;;;;76.68;21.42;;;;;;;;;;5009348;28;20076;-60
2021/09/12 01:04:18;;;;;;;66.88;22.15;;;;;;;;;;5009558;28;20512;-60
2021/09/12 01:06:46;;;;;;;74.25;21.88;;;;;;;;;;5010950;28;20056;-59
2021/09/12 01:09:14;;;;;;;70.78;22.75;;;;;;;;;;4976653;28;20041;-61
2021/09/12 01:11:40;;;;;;;72.32;22.33;;;;;;;;;;4990915;28;20042;-60
2021/09/12 01:14:05;;;;;;;76.43;22.80;;;;;;;;;;5011241;28;20552;-61
2021/09/12 01:16:33;;;;;;;75.82;22.83;;;;;;;;;;5009127;28;20029;-60
2021/09/12 01:19:01;;;;;;;77.50;23.55;;;;;;;;;;5027392;28;20060;-61
2021/09/12 01:21:27;;;;;;;72.80;23.52;;;;;;;;;;5009878;28;20029;-60
2021/09/12 01:23:56;;;;;;;73.38;23.50;;;;;;;;;;5009397;28;20049;-60
2021/09/12 01:26:22;;;;;;;75.80;25.25;;;;;;;;;;4982938;28;20033;-60
2021/09/12 01:28:51;;;;;;;81.68;24.40;;;;;;;;;;5008857;28;20021;-60
2021/09/12 01:31:29;;;;;;;63.10;22.38;;;;;;;;;;5011485;28;20025;-60
2021/09/12 01:33:57;;;;;;;70.43;21.17;;;;;;;;;;5008358;28;20060;-60
2021/09/12 01:36:23;;;;;;;62.40;18.95;;;;;;;;;;5008670;28;20069;-60
2021/09/12 01:38:48;;;;;;;57.47;18.30;;;;;;;;;;4999464;28;20115;-61
2021/09/12 01:41:14;;;;;;;61.03;18.48;;;;;;;;;;5009457;28;20049;-60
2021/09/12 01:43:56;;;;;;;58.42;16.80;;;;;;;;;;5007526;28;20029;-62
2021/09/12 01:46:23;;;;;;;53.65;16.90;;;;;;;;;;5010379;28;20028;-62
2021/09/12 01:48:51;;;;;;;57.20;16.52;;;;;;;;;;5005364;28;20543;-60
2021/09/12 01:51:18;;;;;;;46.00;14.23;;;;;;;;;;5013024;28;20166;-61
2021/09/12 01:53:48;;;;;;;51.15;14.50;;;;;;;;;;5006779;28;20074;-61
2021/09/12 01:56:20;;;;;;;49.78;14.05;;;;;;;;;;5009239;28;20033;-60
2021/09/12 01:58:48;;;;;;;52.05;15.65;;;;;;;;;;5008494;28;20041;-61
2021/09/12 02:01:14;;;;;;;55.45;19.25;;;;;;;;;;5010399;28;20803;-62
2021/09/12 02:03:42;;;;;;;50.15;16.50;;;;;;;;;;5010489;28;20029;-61
2021/09/12 02:06:08;;;;;;;55.17;18.60;;;;;;;;;;5029664;28;20033;-61
2021/09/12 02:08:33;;;;;;;60.72;19.40;;;;;;;;;;5027192;28;20037;-59
2021/09/12 02:10:59;;;;;;;67.30;21.17;;;;;;;;;;4997054;28;20029;-61
2021/09/12 02:13:27;;;;;;;66.47;22.17;;;;;;;;;;4992891;28;21288;-61
2021/09/12 02:15:52;;;;;;;75.60;23.70;;;;;;;;;;5011597;28;20107;-60
2021/09/12 02:18:20;;;;;;;79.07;23.35;;;;;;;;;;5013040;28;20040;-61
2021/09/12 02:20:48;;;;;;;65.65;20.73;;;;;;;;;;5025565;28;20041;-60
2021/09/12 02:23:16;;;;;;;72.10;22.45;;;;;;;;;;5029220;28;20029;-60
2021/09/12 02:25:44;;;;;;;55.03;20.80;;;;;;;;;;5029927;28;20186;-61
2021/09/12 02:28:11;;;;;;;61.75;20.38;;;;;;;;;;5009589;28;20114;-61
2021/09/12 02:30:40;;;;;;;67.97;21.30;;;;;;;;;;4991446;28;20036;-61
2021/09/12 02:33:06;;;;;;;57.45;20.95;;;;;;;;;;5010711;28;20016;-61
2021/09/12 02:35:34;;;;;;;62.75;22.17;;;;;;;;;;5007454;28;20034;-61
2021/09/12 02:37:59;;;;;;;50.22;19.02;;;;;;;;;;5015155;28;20090;-60
2021/09/12 02:40:32;;;;;;;61.10;19.88;;;;;;;;;;5028890;28;20029;-59
2021/09/12 02:43:00;;;;;;;65.88;20.13;;;;;;;;;;5004683;28;20032;-60
2021/09/12 02:45:28;;;;;;;64.18;20.45;;;;;;;;;;5002515;28;20041;-60
2021/09/12 02:47:59;;;;;;;67.40;21.98;;;;;;;;;;5022248;28;20039;-62
2021/09/12 02:50:29;;;;;;;65.13;20.90;;;;;;;;;;5027391;28;20033;-60
2021/09/12 02:52:55;;;;;;;48.80;18.33;;;;;;;;;;5012658;28;20033;-60
2021/09/12 02:55:23;;;;;;;53.17;18.10;;;;;;;;;;5025295;28;21583;-60
2021/09/12 02:57:48;;;;;;;57.40;18.15;;;;;;;;;;4992556;28;21031;-59
2021/09/12 03:00:14;;;;;;;53.60;17.20;;;;;;;;;;4995827;28;20041;-60
2021/09/12 03:02:44;;;;;;;50.10;16.10;;;;;;;;;;5027425;28;20044;-60
2021/09/12 03:05:10;;;;;;;51.10;14.77;;;;;;;;;;5027374;28;20049;-60
2021/09/12 03:07:35;;;;;;;44.40;14.07;;;;;;;;;;4997124;28;20447;-60
2021/09/12 03:10:06;;;;;;;57.25;15.73;;;;;;;;;;5008510;28;20041;-61
2021/09/12 03:12:34;;;;;;;50.70;15.40;;;;;;;;;;5004029;28;22063;-60
2021/09/12 03:15:01;;;;;;;55.92;14.15;;;;;;;;;;5028968;28;20037;-61
2021/09/12 03:17:32;;;;;;;60.85;16.17;;;;;;;;;;5028451;28;20032;-60
2021/09/12 03:19:58;;;;;;;41.67;16.13;;;;;;;;;;5019258;28;20435;-60
2021/09/12 03:22:25;;;;;;;48.97;16.38;;;;;;;;;;5012112;28;20123;-60
2021/09/12 03:24:56;;;;;;;56.53;18.92;;;;;;;;;;5028621;28;21029;-61
2021/09/12 03:27:22;;;;;;;58.45;17.90;;;;;;;;;;5011870;28;20024;-60
2021/09/12 03:29:48;;;;;;;50.03;18.42;;;;;;;;;;5010194;28;20477;-61
2021/09/12 03:32:16;;;;;;;47.35;17.10;;;;;;;;;;5016207;28;20029;-61
2021/09/12 03:34:46;;;;;;;51.65;16.13;;;;;;;;;;5013799;28;20633;-61
2021/09/12 03:37:19;;;;;;;50.35;14.88;;;;;;;;;;5015263;28;20037;-61
2021/09/12 03:39:49;;;;;;;60.72;18.10;;;;;;;;;;5033323;28;20571;-61
2021/09/12 03:42:16;;;;;;;44.35;18.33;;;;;;;;;;5012403;28;20091;-58
2021/09/12 03:44:49;;;;;;;50.70;18.40;;;;;;;;;;5001419;28;20033;-61
2021/09/12 03:47:14;;;;;;;54.13;17.02;;;;;;;;;;5021455;28;20025;-61
2021/09/12 03:49:40;;;;;;;45.58;16.90;;;;;;;;;;5006625;28;21129;-60
2021/09/12 03:52:06;;;;;;;43.85;16.75;;;;;;;;;;5012684;28;20039;-61
2021/09/12 03:54:35;;;;;;;43.40;15.10;;;;;;;;;;4997085;28;20123;-60
2021/09/12 03:57:04;;;;;;;55.85;15.50;;;;;;;;;;5015589;28;20024;-61
2021/09/12 03:59:29;;;;;;;51.53;15.95;;;;;;;;;;4993390;28;20033;-59
2021/09/12 04:01:55;;;;;;;52.13;16.70;;;;;;;;;;5021949;28;20056;-60
2021/09/12 04:04:25;;;;;;;54.97;17.98;;;;;;;;;;5005282;28;20050;-61
2021/09/12 04:06:53;;;;;;;38.15;15.82;;;;;;;;;;5028476;28;20049;-60
2021/09/12 04:09:21;;;;;;;47.65;16.55;;;;;;;;;;5027904;28;20110;-60
2021/09/12 04:11:47;;;;;;;39.40;13.40;;;;;;;;;;5030608;28;20043;-61
2021/09/12 04:14:12;;;;;;;43.13;16.88;;;;;;;;;;5014621;28;20033;-60
2021/09/12 04:16:43;;;;;;;45.10;16.00;;;;;;;;;;5006207;28;20070;-61
2021/09/12 04:19:11;;;;;;;50.70;16.42;;;;;;;;;;5000452;28;20090;-60
2021/09/12 04:21:39;;;;;;;47.65;16.20;;;;;;;;;;5032595;28;20379;-61
2021/09/12 04:24:04;;;;;;;41.22;14.25;;;;;;;;;;5029750;28;20065;-60
2021/09/12 04:26:35;;;;;;;37.90;15.30;;;;;;;;;;5031027;28;20044;-60
2021/09/12 04:29:00;;;;;;;36.70;13.30;;;;;;;;;;5017491;28;20061;-60
2021/09/12 04:31:28;;;;;;;39.03;13.20;;;;;;;;;;4995498;28;20036;-60
2021/09/12 04:33:56;;;;;;;43.50;13.73;;;;;;;;;;5029946;28;20032;-59
2021/09/12 04:36:22;;;;;;;38.00;13.05;;;;;;;;;;5015586;28;20037;-60
2021/09/12 04:38:50;;;;;;;37.80;11.57;;;;;;;;;;5012692;28;20105;-59
2021/09/12 04:41:18;;;;;;;32.80;12.57;;;;;;;;;;5029498;28;20710;-60
2021/09/12 04:43:45;;;;;;;34.38;13.15;;;;;;;;;;4982016;28;20504;-60
2021/09/12 04:46:13;;;;;;;38.40;13.15;;;;;;;;;;4998465;28;20033;-59
2021/09/12 04:48:39;;;;;;;46.58;14.63;;;;;;;;;;5032335;28;20041;-61
2021/09/12 04:51:04;;;;;;;57.63;15.38;;;;;;;;;;5014660;28;20057;-60
2021/09/12 04:53:30;;;;;;;32.65;14.18;;;;;;;;;;5010959;28;20029;-61
2021/09/12 04:55:55;;;;;;;39.70;13.65;;;;;;;;;;5021507;28;20695;-60
2021/09/12 04:58:21;;;;;;;41.42;13.25;;;;;;;;;;5007153;28;20090;-59
2021/09/12 05:00:49;;;;;;;33.78;11.63;;;;;;;;;;5007651;28;20029;-61
2021/09/12 05:03:19;;;;;;;32.55;12.05;;;;;;;;;;4999037;28;20065;-60
2021/09/12 05:05:46;;;;;;;39.65;11.23;;;;;;;;;;5029151;28;20549;-60
2021/09/12 05:08:14;;;;;;;42.22;11.40;;;;;;;;;;5007201;28;20037;-59
2021/09/12 05:10:40;;;;;;;26.83;9.88;;;;;;;;;;5009368;28;20035;-61
2021/09/12 05:13:05;;;;;;;30.92;8.98;;;;;;;;;;5018249;28;20032;-60
2021/09/12 05:15:33;;;;;;;36.92;10.57;;;;;;;;;;4997505;28;20044;-59
2021/09/12 05:18:01;;;;;;;37.42;9.77;;;;;;;;;;5027635;28;20115;-61
2021/09/12 05:20:27;;;;;;;31.25;10.30;;;;;;;;;;5011893;28;20692;-60
2021/09/12 05:22:52;;;;;;;31.10;10.38;;;;;;;;;;5007655;28;20106;-62
2021/09/12 05:25:20;;;;;;;35.38;9.63;;;;;;;;;;5014821;28;20037;-61
2021/09/12 05:27:50;;;;;;;29.48;9.90;;;;;;;;;;5018871;28;20037;-59
2021/09/12 05:30:15;;;;;;;25.38;9.07;;;;;;;;;;5009481;28;20159;-60
2021/09/12 05:32:45;;;;;;;29.55;10.85;;;;;;;;;;4999240;28;20029;-61
2021/09/12 05:35:14;;;;;;;32.03;11.10;;;;;;;;;;5013446;28;20100;-60
2021/09/12 05:37:42;;;;;;;45.67;11.20;;;;;;;;;;5030490;28;20025;-59
2021/09/12 05:40:13;;;;;;;30.15;11.80;;;;;;;;;;5028791;28;21031;-59
2021/09/12 05:42:39;;;;;;;33.38;10.82;;;;;;;;;;5023817;28;20400;-61
2021/09/12 05:45:08;;;;;;;32.67;11.80;;;;;;;;;;5014872;28;20032;-59
2021/09/12 05:47:34;;;;;;;29.98;12.57;;;;;;;;;;5026923;28;20136;-61
2021/09/12 05:50:05;;;;;;;23.38;9.52;;;;;;;;;;5029126;28;20021;-60
2021/09/12 05:52:30;;;;;;;26.58;8.68;;;;;;;;;;5003472;28;20056;-59
2021/09/12 05:55:05;;;;;;;23.92;8.88;;;;;;;;;;5012404;28;21061;-59
2021/09/12 05:57:38;;;;;;;29.45;9.80;;;;;;;;;;5012981;28;20124;-59
2021/09/12 06:00:05;;;;;;;34.42;10.75;;;;;;;;;;5009866;28;20040;-59
2021/09/12 06:02:33;;;;;;;30.40;10.77;;;;;;;;;;5014724;28;20028;-58
2021/09/12 06:05:03;;;;;;;21.67;9.30;;;;;;;;;;5011666;28;20177;-60
2021/09/12 06:07:31;;;;;;;28.75;9.13;;;;;;;;;;5013288;28;20041;-60
2021/09/12 06:09:57;;;;;;;19.45;7.20;;;;;;;;;;5029632;28;20033;-59
2021/09/12 06:12:22;;;;;;;16.83;7.75;;;;;;;;;;5005694;28;20041;-59
2021/09/12 06:14:53;;;;;;;24.92;8.77;;;;;;;;;;5009401;28;20087;-60
2021/09/12 06:17:20;;;;;;;19.70;8.05;;;;;;;;;;5029753;28;20074;-60
2021/09/12 06:19:46;;;;;;;27.83;8.18;;;;;;;;;;5027955;28;21622;-60
2021/09/12 06:22:12;;;;;;;24.70;7.68;;;;;;;;;;5029315;28;20616;-59
2021/09/12 06:24:40;;;;;;;21.27;8.18;;;;;;;;;;5011237;28;20037;-58
2021/09/12 06:27:10;;;;;;;28.17;7.60;;;;;;;;;;5011349;28;20029;-60
2021/09/12 06:29:38;;;;;;;25.02;8.20;;;;;;;;;;5014326;28;20037;-59
2021/09/12 06:32:06;;;;;;;29.35;8.70;;;;;;;;;;5027644;28;20025;-61
2021/09/12 06:34:31;;;;;;;25.98;8.85;;;;;;;;;;5010379;28;20037;-60
2021/09/12 06:36:58;;;;;;;28.27;8.98;;;;;;;;;;5027038;28;20550;-61
2021/09/12 06:39:24;;;;;;;20.25;9.05;;;;;;;;;;5028153;28;20040;-60
2021/09/12 06:41:49;;;;;;;24.42;9.15;;;;;;;;;;4994147;28;20029;-60
2021/09/12 06:44:15;;;;;;;24.55;9.63;;;;;;;;;;5018694;28;20040;-60
2021/09/12 06:46:40;;;;;;;25.40;9.05;;;;;;;;;;5011357;28;20021;-60
2021/09/12 06:49:06;;;;;;;18.88;8.20;;;;;;;;;;5009490;28;20090;-60
2021/09/12 06:51:34;;;;;;;20.40;7.57;;;;;;;;;;5029141;28;20136;-61
2021/09/12 06:54:00;;;;;;;30.45;8.85;;;;;;;;;;5012898;28;20144;-60
2021/09/12 06:56:25;;;;;;;29.40;10.10;;;;;;;;;;5027122;28;20032;-59
2021/09/12 06:58:53;;;;;;;27.95;8.60;;;;;;;;;;5026314;28;20492;-60
2021/09/12 07:01:20;;;;;;;26.08;9.30;;;;;;;;;;5027099;28;20037;-61
2021/09/12 07:03:48;;;;;;;27.25;8.18;;;;;;;;;;4996385;28;20047;-62
2021/09/12 07:06:16;;;;;;;24.58;7.72;;;;;;;;;;5011973;28;20067;-60
2021/09/12 07:08:41;;;;;;;20.98;9.85;;;;;;;;;;5013331;28;20037;-60
2021/09/12 07:11:13;;;;;;;21.95;7.95;;;;;;;;;;5026510;28;20033;-62
2021/09/12 07:13:39;;;;;;;22.02;8.35;;;;;;;;;;5027836;28;20044;-61
2021/09/12 07:16:07;;;;;;;23.70;7.85;;;;;;;;;;4989279;28;20123;-62
2021/09/12 07:18:38;;;;;;;25.92;8.55;;;;;;;;;;5008253;28;20118;-61
2021/09/12 07:21:06;;;;;;;21.25;9.15;;;;;;;;;;5014390;28;20036;-61
2021/09/12 07:23:36;;;;;;;19.05;8.65;;;;;;;;;;5012271;28;20105;-61
2021/09/12 07:26:07;;;;;;;27.35;9.85;;;;;;;;;;5015762;28;20036;-62
2021/09/12 07:28:32;;;;;;;21.45;9.45;;;;;;;;;;5012666;28;20083;-62
2021/09/12 07:31:00;;;;;;;26.63;8.70;;;;;;;;;;4996245;28;20571;-61
2021/09/12 07:33:28;;;;;;;34.88;8.75;;;;;;;;;;5010490;28;20746;-61
2021/09/12 07:35:55;;;;;;;22.67;8.52;;;;;;;;;;5026456;28;20028;-62
2021/09/12 07:38:21;;;;;;;20.58;8.45;;;;;;;;;;5028479;28;20037;-61
2021/09/12 07:40:49;;;;;;;18.92;8.38;;;;;;;;;;5012230;28;20102;-61
2021/09/12 07:43:20;;;;;;;23.77;9.00;;;;;;;;;;5011704;28;20037;-61
2021/09/12 07:45:45;;;;;;;20.77;9.07;;;;;;;;;;5013277;28;20102;-61
2021/09/12 07:48:15;;;;;;;22.58;8.68;;;;;;;;;;5006927;28;20156;-62
2021/09/12 07:50:49;;;;;;;18.27;8.20;;;;;;;;;;5008753;28;20047;-61
2021/09/12 07:53:15;;;;;;;21.15;8.55;;;;;;;;;;5011360;28;20029;-61
2021/09/12 07:55:45;;;;;;;16.63;7.60;;;;;;;;;;4993775;28;20025;-61
2021/09/12 07:58:11;;;;;;;25.38;8.85;;;;;;;;;;5013200;28;20041;-61
2021/09/12 08:00:37;;;;;;;19.40;8.63;;;;;;;;;;5013270;28;20040;-61
2021/09/12 08:03:07;;;;;;;20.80;8.95;;;;;;;;;;5027530;28;20123;-61
2021/09/12 08:05:35;;;;;;;24.08;8.57;;;;;;;;;;5028634;28;20554;-62
2021/09/12 08:08:03;;;;;;;20.45;6.82;;;;;;;;;;5026962;28;20041;-61
2021/09/12 08:10:29;;;;;;;22.92;8.32;;;;;;;;;;5028032;28;20052;-62
2021/09/12 08:12:54;;;;;;;21.25;8.48;;;;;;;;;;5005795;28;20033;-61
2021/09/12 08:15:22;;;;;;;20.13;7.50;;;;;;;;;;5032016;28;20036;-61
2021/09/12 08:17:48;;;;;;;22.08;7.75;;;;;;;;;;5012467;28;20088;-60
2021/09/12 08:20:15;;;;;;;16.50;7.25;;;;;;;;;;4982119;28;20056;-60
2021/09/12 08:22:43;;;;;;;11.57;6.53;;;;;;;;;;5012073;28;20128;-61
2021/09/12 08:25:12;;;;;;;25.23;9.43;;;;;;;;;;5026422;28;20044;-62
2021/09/12 08:27:37;;;;;;;25.33;7.10;;;;;;;;;;5030550;28;20047;-62
2021/09/12 08:30:06;;;;;;;20.02;7.50;;;;;;;;;;4999911;28;20048;-61
2021/09/12 08:32:31;;;;;;;23.27;8.43;;;;;;;;;;5020781;28;20028;-62
2021/09/12 08:34:59;;;;;;;23.63;7.72;;;;;;;;;;5014010;28;20036;-62
2021/09/12 08:37:25;;;;;;;26.85;8.35;;;;;;;;;;5011309;28;20496;-61
2021/09/12 08:39:53;;;;;;;16.25;7.82;;;;;;;;;;5016557;28;20167;-61
2021/09/12 08:42:20;;;;;;;20.40;8.13;;;;;;;;;;5011261;28;20567;-62
2021/09/12 08:44:51;;;;;;;13.75;7.18;;;;;;;;;;5026652;28;20058;-61
2021/09/12 08:47:21;;;;;;;17.25;7.35;;;;;;;;;;5031018;28;20444;-61
2021/09/12 08:49:49;;;;;;;17.85;7.40;;;;;;;;;;5028543;28;20029;-62
2021/09/12 08:52:17;;;;;;;13.65;6.30;;;;;;;;;;5010402;28;20025;-63
2021/09/12 08:54:45;;;;;;;19.02;6.63;;;;;;;;;;5014952;28;20171;-61
2021/09/12 08:57:13;;;;;;;10.50;5.88;;;;;;;;;;5011854;28;20112;-60
2021/09/12 08:59:39;;;;;;;13.43;5.93;;;;;;;;;;4993964;28;20423;-62
2021/09/12 09:02:08;;;;;;;12.77;5.82;;;;;;;;;;5010514;28;20021;-62
2021/09/12 09:04:34;;;;;;;12.85;5.80;;;;;;;;;;5030060;28;20028;-62
2021/09/12 09:07:06;;;;;;;14.65;6.28;;;;;;;;;;5008033;28;20048;-62
2021/09/12 09:09:46;;;;;;;10.80;5.60;;;;;;;;;;5025701;28;20065;-62
2021/09/12 09:12:22;;;;;;;13.77;6.10;;;;;;;;;;4994058;28;20756;-61
2021/09/12 09:14:59;;;;;;;12.25;5.38;;;;;;;;;;5004467;28;20622;-61
2021/09/12 09:17:27;;;;;;;13.20;4.97;;;;;;;;;;4983889;28;20104;-62
2021/09/12 09:19:54;;;;;;;10.63;5.28;;;;;;;;;;5008596;28;20029;-61
2021/09/12 09:22:35;;;;;;;9.57;5.35;;;;;;;;;;5012378;28;20208;-61
2021/09/12 09:25:20;;;;;;;14.13;5.43;;;;;;;;;;4995726;28;20084;-61
2021/09/12 09:27:55;;;;;;;12.43;5.30;;;;;;;;;;5006379;28;20041;-62
2021/09/12 09:30:23;;;;;;;12.77;4.95;;;;;;;;;;5007790;28;20047;-62
2021/09/12 09:32:51;;;;;;;11.10;5.57;;;;;;;;;;5006752;28;20408;-61
2021/09/12 09:35:24;;;;;;;12.52;4.70;;;;;;;;;;5005363;28;20159;-62
2021/09/12 09:37:50;;;;;;;14.27;4.55;;;;;;;;;;5003837;28;20065;-64
2021/09/12 09:40:19;;;;;;;11.85;4.72;;;;;;;;;;5009209;28;20021;-62
2021/09/12 09:42:46;;;;;;;8.70;4.35;;;;;;;;;;5004312;28;20029;-63
2021/09/12 09:45:19;;;;;;;11.68;4.95;;;;;;;;;;4988793;28;20041;-64
2021/09/12 09:47:49;;;;;;;15.90;5.53;;;;;;;;;;5024426;28;20026;-62
2021/09/12 09:50:22;;;;;;;13.98;5.95;;;;;;;;;;5006838;28;20026;-64
2021/09/12 09:52:54;;;;;;;18.27;6.43;;;;;;;;;;5007906;28;20034;-61
2021/09/12 09:55:23;;;;;;;15.05;6.50;;;;;;;;;;5010742;28;20025;-61
2021/09/12 09:57:51;;;;;;;17.52;7.55;;;;;;;;;;4999641;28;20083;-60
2021/09/12 10:00:19;;;;;;;19.05;9.07;;;;;;;;;;5006495;28;20029;-60
2021/09/12 10:02:45;;;;;;;17.25;9.18;;;;;;;;;;4993350;28;20038;-59
2021/09/12 10:05:17;;;;;;;21.38;10.35;;;;;;;;;;4991324;28;20029;-59
2021/09/12 10:07:43;;;;;;;19.33;10.20;;;;;;;;;;5028047;28;20033;-58
2021/09/12 10:10:16;;;;;;;24.38;10.20;;;;;;;;;;5009296;28;20032;-59
2021/09/12 10:12:49;;;;;;;23.25;10.65;;;;;;;;;;5026650;28;20033;-60
2021/09/12 10:15:19;;;;;;;21.35;10.07;;;;;;;;;;5006528;28;20032;-59
2021/09/12 10:17:49;;;;;;;23.48;10.63;;;;;;;;;;5012351;28;20080;-59
2021/09/12 10:20:15;;;;;;;20.80;9.82;;;;;;;;;;5029722;28;20131;-60
2021/09/12 10:22:50;;;;;;;18.77;9.57;;;;;;;;;;4992113;28;20029;-60
2021/09/12 10:25:16;;;;;;;24.88;9.18;;;;;;;;;;5026895;28;20032;-60
2021/09/12 10:27:43;;;;;;;21.77;8.20;;;;;;;;;;5009506;28;20029;-59
2021/09/12 10:30:20;;;;;;;21.10;8.85;;;;;;;;;;5019376;28;20024;-59
2021/09/12 10:32:51;;;;;;;23.73;8.60;;;;;;;;;;5028519;28;20039;-59
2021/09/12 10:35:18;;;;;;;16.20;8.35;;;;;;;;;;4985457;28;20028;-59
2021/09/12 10:38:11;;;;;;;17.40;7.28;;;;;;;;;;5010040;28;20029;-60
2021/09/12 10:40:48;;;;;;;22.30;7.47;;;;;;;;;;5011929;28;20033;-59
2021/09/12 10:43:13;;;;;;;;;;;;;;;;;;5011335;28;20036;-59
2021/09/12 10:45:41;;;;;;;6.93;3.85;;;;;;;;;;5011830;28;20184;-60
2021/09/12 10:48:20;;;;;;;7.40;3.17;;;;;;;;;;5015651;28;21517;-60
2021/09/12 10:50:51;;;;;;;3.72;1.52;;;;;;;;;;5007162;28;20025;-60
2021/09/12 10:53:39;;;;;;;5.22;0.95;;;;;;;;;;5012151;28;20503;-60
2021/09/12 10:56:05;;;;;;;2.50;0.60;;;;;;;;;;5007028;28;20041;-60
2021/09/12 10:58:31;;;;;;;1.40;0.50;;;;;;;;;;4980788;28;20044;-61
2021/09/12 11:01:00;;;;;;;1.52;0.70;;;;;;;;;;5026574;28;20028;-61
2021/09/12 11:03:26;;;;;;;0.68;0.50;;;;;;;;;;5009738;28;20040;-60
2021/09/12 11:05:55;;;;;;;1.00;0.40;;;;;;;;;;5013284;28;20048;-60
2021/09/12 11:08:33;;;;;;;1.23;0.50;;;;;;;;;;5010508;28;20042;-60
2021/09/12 11:11:02;;;;;;;4.03;0.50;;;;;;;;;;5030323;28;20044;-62
2021/09/12 11:13:30;;;;;;;2.38;0.52;;;;;;;;;;5000670;28;20021;-62
2021/09/12 11:16:13;;;;;;;1.15;0.47;;;;;;;;;;5031100;28;20535;-60
2021/09/12 11:18:58;;;;;;;1.23;0.35;;;;;;;;;;5026796;28;20087;-62
2021/09/12 11:21:26;;;;;;;1.60;0.38;;;;;;;;;;5008835;28;20033;-62
2021/09/12 11:24:01;;;;;;;1.25;0.60;;;;;;;;;;5027737;28;20806;-63
2021/09/12 11:26:28;;;;;;;4.35;0.60;;;;;;;;;;5011690;28;20018;-63
2021/09/12 11:29:22;;;;;;;0.60;0.40;;;;;;;;;;5003724;28;20039;-63
2021/09/12 11:31:50;;;;;;;0.47;0.30;;;;;;;;;;4999718;28;21039;-62
2021/09/12 11:34:19;;;;;;;1.30;0.40;;;;;;;;;;5028696;28;20016;-62
2021/09/12 11:36:54;;;;;;;1.83;0.40;;;;;;;;;;5026295;28;20129;-64
2021/09/12 11:39:30;;;;;;;3.47;0.63;;;;;;;;;;4993560;28;20048;-62
2021/09/12 11:41:59;;;;;;;3.70;0.50;;;;;;;;;;5025471;28;20404;-63
2021/09/12 11:44:34;;;;;;;0.50;0.20;;;;;;;;;;4995552;28;20029;-64
2021/09/12 11:47:03;;;;;;;1.48;0.35;;;;;;;;;;5010017;28;20072;-62
2021/09/12 11:49:29;;;;;;;1.88;0.25;;;;;;;;;;5000146;28;20638;-63
2021/09/12 11:51:57;;;;;;;1.95;0.40;;;;;;;;;;5010674;28;20037;-63
2021/09/12 11:54:27;;;;;;;2.42;0.30;;;;;;;;;;5012995;28;20127;-64
2021/09/12 11:56:57;;;;;;;3.33;0.38;;;;;;;;;;5020177;28;20061;-64
2021/09/12 11:59:23;;;;;;;2.33;0.20;;;;;;;;;;5003593;28;20040;-63
2021/09/12 12:01:52;;;;;;;0.75;0.47;;;;;;;;;;4994460;28;21705;-62
2021/09/12 12:04:18;;;;;;;0.32;0.20;;;;;;;;;;5006835;28;20633;-63
2021/09/12 12:06:54;;;;;;;1.42;0.40;;;;;;;;;;5014133;28;20045;-62
2021/09/12 12:09:27;;;;;;;1.33;0.43;;;;;;;;;;4997275;28;20399;-64
2021/09/12 12:12:05;;;;;;;1.90;0.50;;;;;;;;;;5010629;28;20036;-62
2021/09/12 12:14:33;;;;;;;2.15;0.40;;;;;;;;;;4992413;28;20082;-62
2021/09/12 12:17:09;;;;;;;2.58;0.80;;;;;;;;;;5010575;28;20036;-63
2021/09/12 12:19:39;;;;;;;2.28;0.45;;;;;;;;;;5013323;28;20028;-63
2021/09/12 12:22:08;;;;;;;0.88;0.32;;;;;;;;;;5029507;28;20040;-63
2021/09/12 12:24:42;;;;;;;3.33;0.50;;;;;;;;;;5011109;28;20127;-63
2021/09/12 12:27:12;;;;;;;2.58;0.80;;;;;;;;;;5013962;28;20037;-63
2021/09/12 12:29:40;;;;;;;0.63;0.20;;;;;;;;;;5028583;28;21023;-63
2021/09/12 12:32:12;;;;;;;2.92;0.55;;;;;;;;;;5011312;28;20021;-62
2021/09/12 12:34:44;;;;;;;3.53;0.47;;;;;;;;;;5028277;28;20028;-63
2021/09/12 12:37:13;;;;;;;3.65;0.50;;;;;;;;;;4996692;28;20457;-62
2021/09/12 12:39:39;;;;;;;3.38;0.38;;;;;;;;;;4989292;28;22223;-63
2021/09/12 12:42:07;;;;;;;1.77;0.38;;;;;;;;;;5011392;28;20112;-64
2021/09/12 12:44:39;;;;;;;0.45;0.40;;;;;;;;;;5008872;28;20418;-64
2021/09/12 12:47:05;;;;;;;2.22;0.50;;;;;;;;;;5026616;28;20056;-64
2021/09/12 12:49:33;;;;;;;1.33;0.50;;;;;;;;;;5009443;28;22006;-62
2021/09/12 12:52:05;;;;;;;2.45;0.65;;;;;;;;;;4994569;28;20034;-62
2021/09/12 12:54:32;;;;;;;0.95;0.38;;;;;;;;;;5012198;28;20024;-63
2021/09/12 12:56:58;;;;;;;1.35;0.50;;;;;;;;;;4994328;28;20029;-63
2021/09/12 12:59:24;;;;;;;0.65;0.25;;;;;;;;;;5012568;28;20990;-63
2021/09/12 13:01:49;;;;;;;1.95;0.38;;;;;;;;;;5027763;28;20028;-63
2021/09/12 13:04:15;;;;;;;2.53;0.45;;;;;;;;;;5025391;28;20380;-64
2021/09/12 13:06:41;;;;;;;1.70;0.40;;;;;;;;;;5016228;28;20164;-63
2021/09/12 13:09:09;;;;;;;4.90;0.68;;;;;;;;;;4989949;28;20053;-63
2021/09/12 13:11:37;;;;;;;0.98;0.35;;;;;;;;;;4987367;28;20324;-62
2021/09/12 13:14:03;;;;;;;3.10;0.55;;;;;;;;;;4999301;28;20700;-63
2021/09/12 13:16:33;;;;;;;0.90;0.50;;;;;;;;;;4984070;28;20042;-63
2021/09/12 13:19:03;;;;;;;2.58;0.45;;;;;;;;;;5020612;28;20575;-62
2021/09/12 13:21:29;;;;;;;0.40;0.30;;;;;;;;;;5006783;28;20036;-64
2021/09/12 13:23:55;;;;;;;1.70;0.40;;;;;;;;;;5002401;28;21867;-62
2021/09/12 13:26:21;;;;;;;1.33;0.68;;;;;;;;;;4988126;28;20124;-63
2021/09/12 13:28:46;;;;;;;1.00;0.40;;;;;;;;;;4990961;28;20980;-61
2021/09/12 13:31:14;;;;;;;1.00;0.50;;;;;;;;;;5005748;28;20131;-63
2021/09/12 13:33:39;;;;;;;1.48;0.30;;;;;;;;;;5007796;28;20071;-63
2021/09/12 13:36:08;;;;;;;1.48;0.40;;;;;;;;;;5005923;28;20033;-63
2021/09/12 13:38:35;;;;;;;1.90;0.50;;;;;;;;;;5003023;28;20031;-63
2021/09/12 13:41:04;;;;;;;1.38;0.45;;;;;;;;;;4991533;28;20932;-63
2021/09/12 13:43:37;;;;;;;0.35;0.03;;;;;;;;;;5007761;28;20021;-61
2021/09/12 13:46:06;;;;;;;1.45;0.52;;;;;;;;;;5008771;28;20176;-63
2021/09/12 13:48:31;;;;;;;4.32;0.50;;;;;;;;;;5007989;28;20074;-63
2021/09/12 13:50:56;;;;;;;1.17;0.50;;;;;;;;;;5005647;28;20033;-61
2021/09/12 13:53:22;;;;;;;3.00;0.47;;;;;;;;;;4997388;28;20083;-65
2021/09/12 13:55:52;;;;;;;2.25;0.40;;;;;;;;;;5007404;28;20059;-62
2021/09/12 13:58:19;;;;;;;1.48;0.40;;;;;;;;;;4999243;28;20474;-63
2021/09/12 14:00:52;;;;;;;1.92;0.55;;;;;;;;;;5004595;28;20026;-63
2021/09/12 14:03:20;;;;;;;2.13;0.70;;;;;;;;;;4999773;28;20028;-63
2021/09/12 14:05:51;;;;;;;0.70;0.50;;;;;;;;;;4965993;28;20390;-63
2021/09/12 14:08:23;;;;;;;1.63;0.60;;;;;;;;;;4998625;28;20029;-63
2021/09/12 14:10:56;;;;;;;4.88;0.57;;;;;;;;;;4990074;28;20494;-61
2021/09/12 14:13:24;;;;;;;;;;;;;;;;;;4995137;28;20044;-64
2021/09/12 14:15:50;;;;;;;2.67;0.47;;;;;;;;;;4976863;28;19917;-63
2021/09/12 14:18:15;;;;;;;1.42;0.60;;;;;;;;;;4996023;28;20103;-63
2021/09/12 14:20:43;;;;;;;1.52;0.30;;;;;;;;;;4997358;28;20043;-63
2021/09/12 14:23:11;;;;;;;2.63;0.43;;;;;;;;;;5004419;28;20152;-63
2021/09/12 14:25:39;;;;;;;1.02;0.20;;;;;;;;;;5004664;28;20058;-63
2021/09/12 14:28:08;;;;;;;0.98;0.47;;;;;;;;;;5002625;28;20045;-63
2021/09/12 14:30:36;;;;;;;4.28;0.60;;;;;;;;;;5005092;28;20025;-63
2021/09/12 14:33:06;;;;;;;3.53;0.35;;;;;;;;;;5005094;28;20025;-62
2021/09/12 14:35:32;;;;;;;4.07;0.70;;;;;;;;;;5009671;28;20655;-62